Bookmark and Share
Track history (hours):
 

Maersk Neustadt

Last reported at 2014-Apr-13 01:33 UTC. Time now 2014-Apr-17 12:46 UTC.
Position S 33°54' E 017°57'.

Type: Cargo ship. MMSI: 636091227.

NotesDate/timePositionNaut miles runAvg speedWind from/ knotsBaromVisibWave heightAir tempDewpointWater temp
2014-Apr-13 01:33S 33°54' E 017°57'2019.8
2014-Apr-13 00:33S 34°11' E 018°08'2019.5
2014-Apr-12 23:33S 34°27' E 018°21'2020.2
2014-Apr-12 22:33S 34°39' E 018°41'2020.4
2014-Apr-12 21:33S 34°49' E 019°02'35719.8
2014-Apr-12 03:30S 34°12' E 026°14'2320.9
2014-Apr-12 02:24S 34°04' E 026°39'5122.1
2014-Apr-12 00:05S 33°35' E 027°30'25321.9
2014-Apr-11 12:33S 30°29' E 030°51'2121.0
2014-Apr-11 11:33S 30°10' E 031°02'1918.6
2014-Apr-11 10:33S 29°52' E 031°06'4 3.3
2014-Apr-11 09:16S 29°53' E 031°01'0 0.0
2014-Apr-11 08:16S 29°53' E 031°01'0 0.0
2014-Apr-11 07:28S 29°53' E 031°01'0 0.0
2014-Apr-11 06:22S 29°53' E 031°01'0 0.0
2014-Apr-11 04:22S 29°53' E 031°01'0 0.0
2014-Apr-11 03:28S 29°53' E 031°01'0 0.0
2014-Apr-11 02:16S 29°53' E 031°01'0 0.2
2014-Apr-11 01:28S 29°53' E 031°01'0 0.0
2014-Apr-11 00:28S 29°53' E 031°01'0 0.0
2014-Apr-10 23:16S 29°53' E 031°01'0 0.0
2014-Apr-10 22:10S 29°53' E 031°01'0 0.0
2014-Apr-10 21:28S 29°53' E 031°01'0 0.0
2014-Apr-10 19:16S 29°53' E 031°01'0 0.0
2014-Apr-10 18:28S 29°53' E 031°01'1 1.1
2014-Apr-10 17:31S 29°53' E 031°02'4 4.5
2014-Apr-10 16:33S 29°49' E 031°06'5 4.7
2014-Apr-10 15:30S 29°45' E 031°08'0 0.0
2014-Apr-10 13:18S 29°45' E 031°08'0 0.0
2014-Apr-10 12:24S 29°45' E 031°08'0 0.0
2014-Apr-10 10:30S 29°45' E 031°08'0 0.0
2014-Apr-10 08:24S 29°45' E 031°08'0 0.0
2014-Apr-10 07:24S 29°45' E 031°08'0 0.0
2014-Apr-10 06:12S 29°45' E 031°08'0 0.0
2014-Apr-10 05:24S 29°45' E 031°08'0 0.0
2014-Apr-10 04:30S 29°45' E 031°08'0 0.0
2014-Apr-10 02:30S 29°45' E 031°08'0 0.0
2014-Apr-10 01:24S 29°45' E 031°08'0 0.0
2014-Apr-10 00:12S 29°45' E 031°08'0 0.0
2014-Apr-09 23:12S 29°45' E 031°08'0 0.0
2014-Apr-09 20:24S 29°45' E 031°08'0 0.0
2014-Apr-09 19:30S 29°45' E 031°08'0 0.0
2014-Apr-09 17:30S 29°45' E 031°08'0 0.0
2014-Apr-09 15:24S 29°45' E 031°08'0 0.0
2014-Apr-09 14:12S 29°45' E 031°08'0 0.0
2014-Apr-09 13:12S 29°45' E 031°08'0 0.0
2014-Apr-09 12:30S 29°45' E 031°08'0 0.0
2014-Apr-09 10:30S 29°45' E 031°08'0 0.0
2014-Apr-09 09:30S 29°45' E 031°08'0 0.0
2014-Apr-09 07:30S 29°45' E 031°08'0 0.1
2014-Apr-09 06:18S 29°45' E 031°08'0 0.0
2014-Apr-09 05:24S 29°45' E 031°08'0 0.0
2014-Apr-09 04:30S 29°45' E 031°08'0 0.0
2014-Apr-09 03:30S 29°45' E 031°08'0 0.0
2014-Apr-09 02:12S 29°45' E 031°08'0 0.0
2014-Apr-09 01:30S 29°45' E 031°08'0 0.0
2014-Apr-09 00:30S 29°45' E 031°08'0 0.0
2014-Apr-08 22:30S 29°45' E 031°08'0 0.0
2014-Apr-08 20:30S 29°45' E 031°08'0 0.0
2014-Apr-08 19:30S 29°45' E 031°08'0 0.0
2014-Apr-08 18:18S 29°45' E 031°08'0 0.0
2014-Apr-08 17:30S 29°45' E 031°08'0 0.0
2014-Apr-08 16:18S 29°45' E 031°08'0 0.0
2014-Apr-08 15:30S 29°45' E 031°08'0 0.0
2014-Apr-08 14:30S 29°45' E 031°08'0 0.0
2014-Apr-08 13:30S 29°45' E 031°08'0 0.0
2014-Apr-08 12:12S 29°45' E 031°08'0 0.0
2014-Apr-08 11:30S 29°45' E 031°08'0 0.0
2014-Apr-08 10:30S 29°45' E 031°08'0 0.0
2014-Apr-08 09:30S 29°45' E 031°08'0 0.0
2014-Apr-08 08:33S 29°45' E 031°08'6 5.8
2014-Apr-08 07:33S 29°43' E 031°15'1515.4
2014-Apr-08 06:33S 29°34' E 031°29'  

Dump ship's entire track history

sailing weather and tide predictions

Maersk Neustadt — A8KX6 — position and weather